createdAt,value
2023-04-08T00:00:12.066Z,19.70
2023-04-08T00:02:39.131Z,19.67
2023-04-08T00:05:06.910Z,19.50
2023-04-08T00:07:33.798Z,18.97
2023-04-08T00:10:00.395Z,19.50
2023-04-08T00:12:27.203Z,18.07
2023-04-08T00:14:53.807Z,19.53
2023-04-08T00:17:20.599Z,19.40
2023-04-08T00:19:47.416Z,18.87
2023-04-08T00:22:14.017Z,18.67
2023-04-08T00:24:41.015Z,18.57
2023-04-08T00:27:07.827Z,19.90
2023-04-08T00:29:34.525Z,18.83
2023-04-08T00:32:01.111Z,19.87
2023-04-08T00:34:27.797Z,18.93
2023-04-08T00:36:54.434Z,18.37
2023-04-08T00:39:21.208Z,18.63
2023-04-08T00:41:47.784Z,18.27
2023-04-08T00:44:14.377Z,18.83
2023-04-08T00:46:43.733Z,18.83
2023-04-08T00:49:10.564Z,20.03
2023-04-08T00:51:37.222Z,19.30
2023-04-08T00:54:05.213Z,18.53
2023-04-08T00:56:32.996Z,18.40
2023-04-08T00:59:00.921Z,19.10
2023-04-08T01:02:09.979Z,18.43
2023-04-08T01:05:08.506Z,19.10
2023-04-08T01:07:40.486Z,19.87
2023-04-08T01:10:21.370Z,20.27
2023-04-08T01:12:55.367Z,20.63
2023-04-08T01:15:22.538Z,20.20
2023-04-08T01:17:53.182Z,20.23
2023-04-08T01:20:20.645Z,19.93
2023-04-08T01:23:22.356Z,20.13
2023-04-08T01:25:55.710Z,20.53
2023-04-08T01:28:25.348Z,20.53
2023-04-08T01:30:54.914Z,19.13
2023-04-08T01:33:22.563Z,20.23
2023-04-08T01:35:51.284Z,20.23
2023-04-08T01:38:20.573Z,20.47
2023-04-08T01:40:48.222Z,21.47
2023-04-08T01:43:18.407Z,20.37
2023-04-08T01:45:47.035Z,20.53
2023-04-08T01:48:14.879Z,21.83
2023-04-08T01:50:45.760Z,20.90
2023-04-08T01:53:13.413Z,20.43
2023-04-08T01:55:42.156Z,20.77
2023-04-08T01:58:12.413Z,19.73
2023-04-08T02:00:42.910Z,20.87
2023-04-08T02:03:13.375Z,20.00
2023-04-08T02:05:43.343Z,19.13
2023-04-08T02:08:09.970Z,19.93
2023-04-08T02:10:38.729Z,21.03
2023-04-08T02:13:05.746Z,20.20
2023-04-08T02:15:36.371Z,18.80
2023-04-08T02:18:12.574Z,20.07
2023-04-08T02:20:48.482Z,19.57
2023-04-08T02:23:22.337Z,21.20
2023-04-08T02:28:19.099Z,21.93
2023-04-08T02:30:54.867Z,19.73
2023-04-08T02:33:23.422Z,21.20
2023-04-08T02:35:54.993Z,20.23
2023-04-08T02:38:22.144Z,21.33
2023-04-08T02:40:51.414Z,21.47
2023-04-08T02:43:18.333Z,20.97
2023-04-08T02:45:45.659Z,19.50
2023-04-08T02:48:12.975Z,20.93
2023-04-08T02:50:40.804Z,20.03
2023-04-08T02:53:08.761Z,20.40
2023-04-08T02:55:35.516Z,20.30
2023-04-08T02:58:02.141Z,19.83
2023-04-08T03:00:28.850Z,20.47
2023-04-08T03:02:55.744Z,20.67
2023-04-08T03:05:22.492Z,19.83
2023-04-08T03:07:49.062Z,20.73
2023-04-08T03:10:15.987Z,20.43
2023-04-08T03:12:42.554Z,19.60
2023-04-08T03:15:09.629Z,21.30
2023-04-08T03:17:36.370Z,20.23
2023-04-08T03:20:07.025Z,20.70
2023-04-08T03:22:34.433Z,19.93
2023-04-08T03:25:01.012Z,21.00
2023-04-08T03:27:27.625Z,20.10
2023-04-08T03:29:54.282Z,19.87
2023-04-08T03:32:21.158Z,20.27
2023-04-08T03:34:50.213Z,19.30
2023-04-08T03:37:22.456Z,18.47
2023-04-08T03:39:49.450Z,19.53
2023-04-08T03:42:16.154Z,21.27
2023-04-08T03:44:42.781Z,20.03
2023-04-08T03:47:09.346Z,19.67
2023-04-08T03:49:36.352Z,19.97
2023-04-08T03:52:02.948Z,20.13
2023-04-08T03:54:29.523Z,19.90
2023-04-08T03:56:56.593Z,19.73
2023-04-08T03:59:23.345Z,20.63
2023-04-08T04:01:51.580Z,18.97
2023-04-08T04:04:18.853Z,19.43
2023-04-08T04:06:45.875Z,19.50
2023-04-08T04:09:12.779Z,19.83
2023-04-08T04:11:39.604Z,19.30
2023-04-08T04:14:06.220Z,19.10
2023-04-08T04:16:33.197Z,18.87
2023-04-08T04:19:00.105Z,19.20
2023-04-08T04:21:27.411Z,20.40
2023-04-08T04:23:54.205Z,19.20
2023-04-08T04:26:21.310Z,19.57
2023-04-08T04:28:48.150Z,17.90
2023-04-08T04:31:26.640Z,19.20
2023-04-08T04:33:53.577Z,19.23
2023-04-08T04:36:20.260Z,18.87
2023-04-08T04:38:49.627Z,18.23
2023-04-08T04:41:17.161Z,18.97
2023-04-08T04:43:43.776Z,18.03
2023-04-08T04:46:12.889Z,20.07
2023-04-08T04:48:39.537Z,19.00
2023-04-08T04:51:07.710Z,19.40
2023-04-08T04:53:34.479Z,19.57
2023-04-08T04:56:03.666Z,20.40
2023-04-08T04:58:30.965Z,20.50
2023-04-08T05:00:57.864Z,18.63
2023-04-08T05:03:25.131Z,21.10
2023-04-08T05:05:53.251Z,18.93
2023-04-08T05:08:22.717Z,18.43
2023-04-08T05:10:50.935Z,19.70
2023-04-08T05:13:18.689Z,18.80
2023-04-08T05:15:47.805Z,18.83
2023-04-08T05:18:14.980Z,19.97
2023-04-08T05:20:41.745Z,21.70
2023-04-08T05:23:08.951Z,22.70
2023-04-08T05:25:35.806Z,26.10
2023-04-08T05:28:05.894Z,26.93
2023-04-08T05:30:34.940Z,26.17
2023-04-08T05:33:01.952Z,27.53
2023-04-08T05:35:29.383Z,27.40
2023-04-08T05:37:56.500Z,29.07
2023-04-08T05:40:23.197Z,27.43
2023-04-08T05:42:49.986Z,26.07
2023-04-08T05:45:16.819Z,27.70
2023-04-08T05:47:43.752Z,30.57
2023-04-08T05:50:11.694Z,31.03
2023-04-08T05:52:43.798Z,59.43
2023-04-08T05:55:11.366Z,41.03
2023-04-08T05:57:38.212Z,49.87
2023-04-08T06:00:10.819Z,59.23
2023-04-08T06:02:39.941Z,59.40
2023-04-08T06:05:07.053Z,64.33
2023-04-08T06:07:34.473Z,56.53
2023-04-08T06:10:01.305Z,59.73
2023-04-08T06:12:27.963Z,59.60
2023-04-08T06:14:57.431Z,57.30
2023-04-08T06:17:24.057Z,51.93
2023-04-08T06:19:50.742Z,48.30
2023-04-08T06:22:17.517Z,56.50
2023-04-08T06:24:44.172Z,51.17
2023-04-08T06:27:10.828Z,52.70
2023-04-08T06:29:37.428Z,75.73
2023-04-08T06:32:04.441Z,89.07
2023-04-08T06:34:31.116Z,85.90
2023-04-08T06:36:57.704Z,83.13
2023-04-08T06:39:24.561Z,88.73
2023-04-08T06:41:51.381Z,82.73
2023-04-08T06:44:18.368Z,74.77
2023-04-08T06:46:44.935Z,82.00
2023-04-08T06:49:13.040Z,82.90
2023-04-08T06:51:39.641Z,80.67
2023-04-08T06:54:06.295Z,83.27
2023-04-08T06:56:32.924Z,75.27
2023-04-08T06:58:59.687Z,80.93
2023-04-08T07:01:26.561Z,76.47
2023-04-08T07:03:53.302Z,79.93
2023-04-08T07:06:19.915Z,73.87
2023-04-08T07:08:46.579Z,69.77
2023-04-08T07:11:13.230Z,73.83
2023-04-08T07:13:41.924Z,92.17
2023-04-08T07:16:08.589Z,59.57
2023-04-08T07:18:35.651Z,61.53
2023-04-08T07:21:02.572Z,61.67
2023-04-08T07:23:29.217Z,58.87
2023-04-08T07:25:55.861Z,73.10
2023-04-08T07:28:22.529Z,58.70
2023-04-08T07:30:49.126Z,65.83
2023-04-08T07:33:16.298Z,60.60
2023-04-08T07:35:43.081Z,69.70
2023-04-08T07:38:11.722Z,55.77
2023-04-08T07:40:38.347Z,53.27
2023-04-08T07:43:05.002Z,46.90
2023-04-08T07:45:31.808Z,53.60
2023-04-08T07:47:58.559Z,51.37
2023-04-08T07:50:25.252Z,47.63
2023-04-08T07:52:53.442Z,39.27
2023-04-08T07:55:20.506Z,36.80
2023-04-08T07:57:47.464Z,55.43
2023-04-08T08:00:20.935Z,48.40
2023-04-08T08:02:48.819Z,46.77
2023-04-08T08:05:15.628Z,44.13
2023-04-08T08:07:42.505Z,48.23
2023-04-08T08:10:09.970Z,57.90
2023-04-08T08:12:36.792Z,56.07
2023-04-08T08:15:06.332Z,61.47
2023-04-08T08:17:35.731Z,73.50
2023-04-08T08:20:04.415Z,94.20
2023-04-08T08:22:31.003Z,89.90
2023-04-08T08:24:58.235Z,104.97
2023-04-08T08:27:26.185Z,96.23
2023-04-08T08:29:53.085Z,96.30
2023-04-08T08:32:19.865Z,98.30
2023-04-08T08:34:46.634Z,106.37
2023-04-08T08:37:13.245Z,109.27
2023-04-08T08:39:40.315Z,93.90
2023-04-08T08:42:19.249Z,99.77
2023-04-08T08:44:45.939Z,87.47
2023-04-08T08:47:12.573Z,98.40
2023-04-08T08:49:39.251Z,96.73
2023-04-08T08:52:07.079Z,98.20
2023-04-08T08:54:33.724Z,105.87
2023-04-08T08:57:00.597Z,92.50
2023-04-08T08:59:27.866Z,90.07
2023-04-08T09:01:54.533Z,82.93
2023-04-08T09:04:23.065Z,86.63
2023-04-08T09:07:08.907Z,78.10
2023-04-08T09:09:51.851Z,78.27
2023-04-08T09:12:19.137Z,81.47
2023-04-08T09:14:46.575Z,69.80
2023-04-08T09:17:13.278Z,67.10
2023-04-08T09:19:40.620Z,61.83
2023-04-08T09:22:09.087Z,62.50
2023-04-08T09:24:37.468Z,64.47
2023-04-08T09:27:05.804Z,62.27
2023-04-08T09:29:35.241Z,50.30
2023-04-08T09:32:03.735Z,46.23
2023-04-08T09:34:34.588Z,49.10
2023-04-08T09:37:01.567Z,47.27
2023-04-08T09:39:28.184Z,46.30
2023-04-08T09:41:59.200Z,37.40
2023-04-08T09:44:28.769Z,35.17
2023-04-08T09:47:01.569Z,31.57
2023-04-08T09:49:28.197Z,32.07
2023-04-08T09:52:05.371Z,32.17
2023-04-08T09:54:37.239Z,33.00
2023-04-08T09:57:13.891Z,29.63
2023-04-08T09:59:49.627Z,30.33
2023-04-08T10:02:22.622Z,26.83
2023-04-08T10:04:52.679Z,24.03
2023-04-08T10:07:19.445Z,23.50
2023-04-08T10:09:46.417Z,25.70
2023-04-08T10:12:13.063Z,23.80
2023-04-08T10:14:39.712Z,23.63
2023-04-08T10:17:27.658Z,21.67
2023-04-08T10:19:54.970Z,23.07
2023-04-08T10:22:33.943Z,25.57
2023-04-08T10:25:16.936Z,19.27
2023-04-08T10:27:45.176Z,19.37
2023-04-08T10:30:31.953Z,20.20
2023-04-08T10:33:00.418Z,21.80
2023-04-08T10:35:36.766Z,18.27
2023-04-08T10:38:04.009Z,18.40
2023-04-08T10:40:39.175Z,13.90
2023-04-08T10:43:06.222Z,12.93
2023-04-08T10:45:33.363Z,14.53
2023-04-08T10:48:11.920Z,12.23
2023-04-08T10:50:38.501Z,16.90
2023-04-08T10:53:05.144Z,11.63
2023-04-08T10:55:32.435Z,9.27
2023-04-08T10:58:17.699Z,10.20
2023-04-08T11:00:44.388Z,10.03
2023-04-08T11:03:13.715Z,9.33
2023-04-08T11:05:42.134Z,12.83
2023-04-08T11:08:08.750Z,10.40
2023-04-08T11:10:39.181Z,15.57
2023-04-08T11:13:10.034Z,10.00
2023-04-08T11:15:37.478Z,9.30
2023-04-08T11:18:06.084Z,10.37
2023-04-08T11:20:37.228Z,11.40
2023-04-08T11:23:03.915Z,11.27
2023-04-08T11:25:30.723Z,10.83
2023-04-08T11:27:57.628Z,10.73
2023-04-08T11:30:24.622Z,10.10
2023-04-08T11:32:54.033Z,9.57
2023-04-08T11:35:20.965Z,9.97
2023-04-08T11:37:49.864Z,9.57
2023-04-08T11:40:22.021Z,9.90
2023-04-08T11:42:48.911Z,15.13
2023-04-08T11:45:20.086Z,10.40
2023-04-08T11:47:47.786Z,10.43
2023-04-08T11:50:24.860Z,9.10
2023-04-08T11:52:52.765Z,8.77
2023-04-08T11:55:30.407Z,9.73
2023-04-08T11:58:02.132Z,10.03
2023-04-08T12:00:28.758Z,9.43
2023-04-08T12:02:55.892Z,19.77
2023-04-08T12:05:22.535Z,10.53
2023-04-08T12:07:49.171Z,9.63
2023-04-08T12:10:16.246Z,10.37
2023-04-08T12:12:42.877Z,9.47
2023-04-08T12:15:10.230Z,10.33
2023-04-08T12:17:39.070Z,12.57
2023-04-08T12:20:06.746Z,9.30
2023-04-08T12:22:33.767Z,7.33
2023-04-08T12:25:00.470Z,7.20
2023-04-08T12:27:27.061Z,8.60
2023-04-08T12:29:53.645Z,11.07
2023-04-08T12:32:20.622Z,6.90
2023-04-08T12:34:47.480Z,7.43
2023-04-08T12:37:14.123Z,6.50
2023-04-08T12:39:40.783Z,8.37
2023-04-08T12:42:07.359Z,7.57
2023-04-08T12:44:33.979Z,6.73
2023-04-08T12:47:00.593Z,6.33
2023-04-08T12:49:28.153Z,8.37
2023-04-08T12:51:55.219Z,8.03
2023-04-08T12:54:21.918Z,5.90
2023-04-08T12:56:49.106Z,6.80
2023-04-08T12:59:16.193Z,5.80
2023-04-08T13:01:43.380Z,7.57
2023-04-08T13:04:10.223Z,6.53
2023-04-08T13:06:36.875Z,6.27
2023-04-08T13:09:03.787Z,7.40
2023-04-08T13:11:34.237Z,6.67
2023-04-08T13:14:00.895Z,6.20
2023-04-08T13:16:27.874Z,8.90
2023-04-08T13:18:54.522Z,6.43
2023-04-08T13:21:21.551Z,10.07
2023-04-08T13:23:48.583Z,9.53
2023-04-08T13:26:15.206Z,7.30
2023-04-08T13:28:55.875Z,8.20
2023-04-08T13:31:29.360Z,6.73
2023-04-08T13:33:58.229Z,8.13
2023-04-08T13:36:25.125Z,9.57
2023-04-08T13:38:52.194Z,6.73
2023-04-08T13:41:21.252Z,9.73
2023-04-08T13:43:47.883Z,9.27
2023-04-08T13:46:18.601Z,13.77
2023-04-08T13:48:46.091Z,8.93
2023-04-08T13:51:12.751Z,9.00
2023-04-08T13:53:39.368Z,8.70
2023-04-08T13:56:06.213Z,8.20
2023-04-08T13:58:32.822Z,9.70
2023-04-08T14:00:59.435Z,10.67
2023-04-08T14:03:26.919Z,12.97
2023-04-08T14:05:53.932Z,11.60
2023-04-08T14:08:25.722Z,11.70
2023-04-08T14:11:01.481Z,11.53
2023-04-08T14:13:28.184Z,10.53
2023-04-08T14:15:58.471Z,10.90
2023-04-08T14:18:25.969Z,10.67
2023-04-08T14:20:52.774Z,11.30
2023-04-08T14:23:19.348Z,9.67
2023-04-08T14:25:45.933Z,9.10
2023-04-08T14:28:12.698Z,10.17
2023-04-08T14:30:39.306Z,9.80
2023-04-08T14:33:06.409Z,10.37
2023-04-08T14:35:33.158Z,9.70
2023-04-08T14:38:00.356Z,10.17
2023-04-08T14:40:26.967Z,10.03
2023-04-08T14:42:54.081Z,10.57
2023-04-08T14:45:20.845Z,10.37
2023-04-08T14:47:47.486Z,11.40
2023-04-08T14:50:14.216Z,11.30
2023-04-08T14:52:41.122Z,10.60
2023-04-08T14:55:07.978Z,11.47
2023-04-08T14:57:35.019Z,11.97
2023-04-08T15:00:02.023Z,11.63
2023-04-08T15:02:29.090Z,10.90
2023-04-08T15:04:56.123Z,11.73
2023-04-08T15:07:22.833Z,14.40
2023-04-08T15:09:49.407Z,14.10
2023-04-08T15:12:16.024Z,13.40
2023-04-08T15:14:42.599Z,13.30
2023-04-08T15:17:10.328Z,12.70
2023-04-08T15:19:36.979Z,13.47
2023-04-08T15:22:04.126Z,13.00
2023-04-08T15:24:30.763Z,14.03
2023-04-08T15:26:59.542Z,13.60
2023-04-08T15:29:26.286Z,12.90
2023-04-08T15:31:52.905Z,14.00
2023-04-08T15:34:19.476Z,12.30
2023-04-08T15:36:47.529Z,12.53
2023-04-08T15:39:14.265Z,11.77
2023-04-08T15:41:40.889Z,12.03
2023-04-08T15:44:07.505Z,12.87
2023-04-08T15:46:35.557Z,13.17
2023-04-08T15:49:03.948Z,14.10
2023-04-08T15:51:30.568Z,13.13
2023-04-08T15:53:57.966Z,14.43
2023-04-08T15:56:24.763Z,14.27
2023-04-08T15:58:52.403Z,14.83
2023-04-08T16:01:20.381Z,13.73
2023-04-08T16:03:47.092Z,14.70
2023-04-08T16:06:13.885Z,14.23
2023-04-08T16:08:40.761Z,15.13
2023-04-08T16:11:08.247Z,13.90
2023-04-08T16:13:35.129Z,17.47
2023-04-08T16:16:04.318Z,13.57
2023-04-08T16:18:31.239Z,15.13
2023-04-08T16:20:58.025Z,16.53
2023-04-08T16:23:25.044Z,17.83
2023-04-08T16:25:52.289Z,16.30
2023-04-08T16:28:18.891Z,16.33
2023-04-08T16:30:48.004Z,15.70
2023-04-08T16:33:15.088Z,16.93
2023-04-08T16:35:42.143Z,17.50
2023-04-08T16:38:09.179Z,17.93
2023-04-08T16:40:35.795Z,18.10
2023-04-08T16:43:04.590Z,18.50
2023-04-08T16:45:32.759Z,17.23
2023-04-08T16:48:00.709Z,20.57
2023-04-08T16:50:28.627Z,20.53
2023-04-08T16:52:55.365Z,22.23
2023-04-08T16:55:25.095Z,23.57
2023-04-08T16:57:51.747Z,24.60
2023-04-08T17:00:21.023Z,23.17
2023-04-08T17:02:47.982Z,23.33
2023-04-08T17:05:14.729Z,23.03
2023-04-08T17:07:41.380Z,23.63
2023-04-08T17:10:08.678Z,22.63
2023-04-08T17:12:36.441Z,21.87
2023-04-08T17:15:03.743Z,22.03
2023-04-08T17:17:30.499Z,23.47
2023-04-08T17:19:57.202Z,21.20
2023-04-08T17:22:23.795Z,22.33
2023-04-08T17:24:50.422Z,20.93
2023-04-08T17:27:17.237Z,19.93
2023-04-08T17:29:46.153Z,19.93
2023-04-08T17:32:13.389Z,20.67
2023-04-08T17:34:41.160Z,19.80
2023-04-08T17:37:08.287Z,21.73
2023-04-08T17:39:40.841Z,19.87
2023-04-08T17:42:08.457Z,18.83
2023-04-08T17:44:35.991Z,16.87
2023-04-08T17:47:03.842Z,17.57
2023-04-08T17:49:30.525Z,16.83
2023-04-08T17:51:58.267Z,16.17
2023-04-08T17:54:25.165Z,17.00
2023-04-08T17:56:51.914Z,17.30
2023-04-08T17:59:18.630Z,17.43
2023-04-08T18:01:45.381Z,16.73
2023-04-08T18:04:12.890Z,17.53
2023-04-08T18:06:39.705Z,19.47
2023-04-08T18:09:06.283Z,19.77
2023-04-08T18:11:33.022Z,17.67
2023-04-08T18:13:59.672Z,21.07
2023-04-08T18:16:26.276Z,20.27
2023-04-08T18:18:52.949Z,20.93
2023-04-08T18:21:19.898Z,22.10
2023-04-08T18:23:49.618Z,23.50
2023-04-08T18:26:16.627Z,26.10
2023-04-08T18:28:43.280Z,23.33
2023-04-08T18:31:10.334Z,23.43
2023-04-08T18:33:39.406Z,22.67
2023-04-08T18:36:10.675Z,23.57
2023-04-08T18:38:38.422Z,22.23
2023-04-08T18:41:05.051Z,21.93
2023-04-08T18:43:34.387Z,23.33
2023-04-08T18:46:03.492Z,21.47
2023-04-08T18:48:30.437Z,21.93
2023-04-08T18:50:57.704Z,20.47
2023-04-08T18:53:24.374Z,22.83
2023-04-08T18:55:53.813Z,21.73
2023-04-08T18:58:23.026Z,22.47
2023-04-08T19:00:49.727Z,21.53
2023-04-08T19:03:16.464Z,21.67
2023-04-08T19:05:43.186Z,22.60
2023-04-08T19:08:09.786Z,22.73
2023-04-08T19:10:38.643Z,23.23
2023-04-08T19:13:05.418Z,22.83
2023-04-08T19:15:32.162Z,22.23
2023-04-08T19:17:59.248Z,22.07
2023-04-08T19:20:28.664Z,22.00
2023-04-08T19:22:57.790Z,23.03
2023-04-08T19:25:24.368Z,21.23
2023-04-08T19:27:51.268Z,22.30
2023-04-08T19:30:17.935Z,22.70
2023-04-08T19:32:46.612Z,23.93
2023-04-08T19:35:13.599Z,25.33
2023-04-08T19:37:40.633Z,31.17
2023-04-08T19:40:08.730Z,30.40
2023-04-08T19:42:35.628Z,31.17
2023-04-08T19:45:02.776Z,30.87
2023-04-08T19:47:29.772Z,31.47
2023-04-08T19:49:58.353Z,28.10
2023-04-08T19:52:25.180Z,32.67
2023-04-08T19:54:52.380Z,33.40
2023-04-08T19:57:19.979Z,29.70
2023-04-08T19:59:48.792Z,31.33
2023-04-08T20:02:15.727Z,32.37
2023-04-08T20:04:42.640Z,32.23
2023-04-08T20:07:09.484Z,35.37
2023-04-08T20:09:36.245Z,34.00
2023-04-08T20:12:06.170Z,32.70
2023-04-08T20:14:34.130Z,32.43
2023-04-08T20:17:00.807Z,33.83
2023-04-08T20:19:27.419Z,31.07
2023-04-08T20:21:54.265Z,33.70
2023-04-08T20:24:20.869Z,37.17
2023-04-08T20:26:47.741Z,36.93
2023-04-08T20:29:14.409Z,37.17
2023-04-08T20:31:41.104Z,38.23
2023-04-08T20:34:08.635Z,35.60
2023-04-08T20:36:35.484Z,35.10
2023-04-08T20:39:02.556Z,33.73
2023-04-08T20:41:29.599Z,34.03
2023-04-08T20:43:56.216Z,34.80
2023-04-08T20:46:23.255Z,31.97
2023-04-08T20:48:50.412Z,32.67
2023-04-08T20:51:17.670Z,31.53
2023-04-08T20:53:44.646Z,38.00
2023-04-08T20:56:11.508Z,32.03
2023-04-08T20:58:38.138Z,31.33
2023-04-08T21:01:04.915Z,31.53
2023-04-08T21:03:31.628Z,31.87
2023-04-08T21:05:58.739Z,31.50
2023-04-08T21:08:25.589Z,32.47
2023-04-08T21:10:54.264Z,29.37
2023-04-08T21:13:21.608Z,29.40
2023-04-08T21:15:48.260Z,29.47
2023-04-08T21:18:14.882Z,29.13
2023-04-08T21:20:44.585Z,27.47
2023-04-08T21:23:11.221Z,30.23
2023-04-08T21:25:37.768Z,33.43
2023-04-08T21:28:04.349Z,27.57
2023-04-08T21:30:30.955Z,30.13
2023-04-08T21:32:58.071Z,32.67
2023-04-08T21:35:24.685Z,30.23
2023-04-08T21:37:51.599Z,32.27
2023-04-08T21:40:18.297Z,29.50
2023-04-08T21:42:46.086Z,30.13
2023-04-08T21:45:12.773Z,27.50
2023-04-08T21:47:39.476Z,30.57
2023-04-08T21:50:06.993Z,30.10
2023-04-08T21:52:33.856Z,29.23
2023-04-08T21:55:01.025Z,28.47
2023-04-08T21:57:28.176Z,30.17
2023-04-08T21:59:54.743Z,27.70
2023-04-08T22:02:21.745Z,27.67
2023-04-08T22:04:49.022Z,28.97
2023-04-08T22:07:18.009Z,27.80
2023-04-08T22:09:44.848Z,26.20
2023-04-08T22:12:11.636Z,28.13
2023-04-08T22:14:38.256Z,27.83
2023-04-08T22:17:05.782Z,30.00
2023-04-08T22:19:32.486Z,30.27
2023-04-08T22:21:59.068Z,26.53
2023-04-08T22:24:27.742Z,27.80
2023-04-08T22:26:54.641Z,27.07
2023-04-08T22:29:21.338Z,24.10
2023-04-08T22:31:47.997Z,28.03
2023-04-08T22:34:14.647Z,24.70
2023-04-08T22:36:41.740Z,25.30
2023-04-08T22:39:08.669Z,25.97
2023-04-08T22:41:35.594Z,25.10
2023-04-08T22:44:02.278Z,25.73
2023-04-08T22:46:28.968Z,26.07
2023-04-08T22:48:55.748Z,26.67
2023-04-08T22:51:22.675Z,25.27
2023-04-08T22:53:49.441Z,27.53
2023-04-08T22:56:16.207Z,26.27
2023-04-08T22:58:42.886Z,26.03
2023-04-08T23:01:14.909Z,28.17
2023-04-08T23:03:41.947Z,27.80
2023-04-08T23:06:08.774Z,26.57
2023-04-08T23:08:35.669Z,28.77
2023-04-08T23:11:02.292Z,26.90
2023-04-08T23:13:29.251Z,26.17
2023-04-08T23:15:55.987Z,26.40
2023-04-08T23:18:22.686Z,26.37
2023-04-08T23:20:52.988Z,27.37
2023-04-08T23:23:20.744Z,29.10
2023-04-08T23:25:48.005Z,25.07
2023-04-08T23:28:14.601Z,28.83
2023-04-08T23:30:41.282Z,26.73
2023-04-08T23:33:08.243Z,26.00
2023-04-08T23:35:34.891Z,25.97
2023-04-08T23:38:01.732Z,26.23
2023-04-08T23:40:28.332Z,27.80
2023-04-08T23:42:55.409Z,28.13
2023-04-08T23:45:22.010Z,26.43
2023-04-08T23:47:48.635Z,32.07
2023-04-08T23:50:15.745Z,27.13
2023-04-08T23:52:42.373Z,27.77
2023-04-08T23:55:09.401Z,26.20
2023-04-08T23:57:36.027Z,24.87
